Time;durP1;ratioP1;P1;durP2;ratioP2;P2;SDS_P1;SDS_P2;PMS_P1;PMS_P2;Temp;Humidity;BMP_temperature;BMP_pressure;BME280_temperature;BME280_humidity;BME280_pressure;Samples;Min_cycle;Max_cycle;Signal;HPM_P1;HPM_P2
2023/11/06 00:02:12;;;;;;;0.45;0.32;;;10.40;99.90;;;;;;5046695;28;20040;-76
2023/11/06 00:04:38;;;;;;;0.65;0.65;;;10.40;99.90;;;;;;5046252;28;20040;-76
2023/11/06 00:07:04;;;;;;;6.75;1.10;;;10.40;99.90;;;;;;5047922;28;20478;-75
2023/11/06 00:09:30;;;;;;;1.23;0.60;;;10.40;99.90;;;;;;5031986;28;20041;-75
2023/11/06 00:11:57;;;;;;;3.85;0.73;;;10.40;99.90;;;;;;5042365;28;20036;-76
2023/11/06 00:14:23;;;;;;;0.85;0.30;;;10.40;99.90;;;;;;5045158;28;20040;-76
2023/11/06 00:16:51;;;;;;;0.52;0.52;;;10.40;99.90;;;;;;5047358;28;20047;-75
2023/11/06 00:19:17;;;;;;;0.20;0.20;;;10.40;99.90;;;;;;5044706;28;20046;-75
2023/11/06 00:21:43;;;;;;;2.45;1.73;;;10.40;99.90;;;;;;5042804;28;20052;-76
2023/11/06 00:24:10;;;;;;;0.40;0.40;;;10.40;99.90;;;;;;5041485;28;20041;-76
2023/11/06 00:26:36;;;;;;;1.15;1.05;;;10.40;99.90;;;;;;5045605;28;20044;-76
2023/11/06 00:29:02;;;;;;;0.70;0.65;;;10.40;99.90;;;;;;5047463;28;20029;-76
2023/11/06 00:31:28;;;;;;;0.38;0.30;;;10.40;99.90;;;;;;5042584;28;20482;-76
2023/11/06 00:33:54;;;;;;;0.47;0.43;;;10.40;99.90;;;;;;5048692;28;20032;-75
2023/11/06 00:36:25;;;;;;;1.27;1.17;;;10.40;99.90;;;;;;5045426;28;20064;-76
2023/11/06 00:38:51;;;;;;;0.28;0.28;;;10.40;99.90;;;;;;5044023;28;20033;-76
2023/11/06 00:41:17;;;;;;;0.98;0.93;;;10.40;99.90;;;;;;5043304;28;20025;-76
2023/11/06 00:43:44;;;;;;;9.00;2.00;;;10.50;99.90;;;;;;5042864;28;20045;-76
2023/11/06 00:46:10;;;;;;;1.33;1.23;;;10.50;99.90;;;;;;5042033;28;20657;-76
2023/11/06 00:48:36;;;;;;;7.50;0.60;;;10.50;99.90;;;;;;5044669;28;20040;-76
2023/11/06 00:51:02;;;;;;;0.10;0.10;;;10.50;99.90;;;;;;5021687;28;20034;-76
2023/11/06 00:53:28;;;;;;;0.25;0.25;;;10.50;99.90;;;;;;5042671;28;20021;-76
2023/11/06 00:55:55;;;;;;;0.10;0.10;;;10.50;99.90;;;;;;5043280;28;20033;-75
2023/11/06 00:58:21;;;;;;;0.10;0.10;;;10.50;99.90;;;;;;5042558;28;20029;-76
2023/11/06 01:00:47;;;;;;;0.80;0.77;;;10.60;99.90;;;;;;5042645;28;20386;-76
2023/11/06 01:03:13;;;;;;;0.20;0.20;;;10.60;99.90;;;;;;5030980;28;20052;-76
2023/11/06 01:05:39;;;;;;;1.38;0.40;;;10.60;99.90;;;;;;5044353;28;20029;-75
2023/11/06 01:08:06;;;;;;;0.20;0.20;;;10.60;99.90;;;;;;5044513;28;20045;-75
2023/11/06 01:10:33;;;;;;;0.63;0.63;;;10.60;99.90;;;;;;5045857;28;20032;-76
2023/11/06 01:12:59;;;;;;;0.15;0.15;;;10.60;99.90;;;;;;5043518;28;20136;-76
2023/11/06 01:15:26;;;;;;;0.47;0.47;;;10.60;99.90;;;;;;5044279;28;20028;-76
2023/11/06 01:17:53;;;;;;;0.55;0.55;;;10.60;99.90;;;;;;5030024;28;20053;-76
2023/11/06 01:20:24;;;;;;;2.47;0.40;;;10.60;99.90;;;;;;5029017;28;20036;-76
2023/11/06 01:22:51;;;;;;;0.32;0.32;;;10.50;99.90;;;;;;5044388;28;20025;-75
2023/11/06 01:25:17;;;;;;;0.20;0.20;;;10.50;99.90;;;;;;5042632;28;20034;-76
2023/11/06 01:27:43;;;;;;;0.10;0.10;;;10.50;99.90;;;;;;5040734;28;20033;-75
2023/11/06 01:30:10;;;;;;;0.32;0.30;;;10.50;99.90;;;;;;5042620;28;20043;-75
2023/11/06 01:32:36;;;;;;;0.20;0.20;;;10.50;99.90;;;;;;5029547;28;20044;-76
2023/11/06 01:35:03;;;;;;;0.32;0.28;;;10.60;99.90;;;;;;5043715;28;20048;-75
2023/11/06 01:37:29;;;;;;;5.15;1.35;;;10.60;99.90;;;;;;5044152;28;20044;-76
2023/11/06 01:39:55;;;;;;;0.88;0.57;;;10.60;99.90;;;;;;5041274;28;20045;-76
2023/11/06 01:42:22;;;;;;;0.17;0.17;;;10.70;99.90;;;;;;5040116;28;20040;-76
2023/11/06 01:44:48;;;;;;;0.22;0.22;;;10.70;99.90;;;;;;5025233;28;20041;-76
2023/11/06 01:47:15;;;;;;;0.20;0.20;;;10.60;99.90;;;;;;5041485;28;20037;-76
2023/11/06 01:49:44;;;;;;;2.45;0.75;;;10.50;99.90;;;;;;5019904;28;20050;-76
2023/11/06 01:52:16;;;;;;;0.10;0.10;;;10.40;99.90;;;;;;5048526;28;20041;-75
2023/11/06 01:54:43;;;;;;;2.05;1.15;;;10.40;99.90;;;;;;5041984;28;20029;-75
2023/11/06 01:57:11;;;;;;;0.10;0.10;;;10.50;99.90;;;;;;5044035;28;20025;-76
2023/11/06 01:59:37;;;;;;;0.17;0.17;;;10.50;99.90;;;;;;5031759;28;20041;-76
2023/11/06 02:02:04;;;;;;;0.17;0.17;;;10.50;99.90;;;;;;5044866;28;20393;-76
2023/11/06 02:04:31;;;;;;;23.10;0.65;;;10.40;99.90;;;;;;5052753;28;20056;-76
2023/11/06 02:06:57;;;;;;;0.20;0.20;;;10.50;99.90;;;;;;5051493;28;20037;-76
2023/11/06 02:09:26;;;;;;;0.20;0.13;;;10.40;99.90;;;;;;5056816;28;20486;-76
2023/11/06 02:11:53;;;;;;;0.57;0.55;;;10.40;99.90;;;;;;5032317;28;20045;-76
2023/11/06 02:14:19;;;;;;;0.10;0.10;;;10.40;99.90;;;;;;5045015;28;20041;-76
2023/11/06 02:16:45;;;;;;;0.40;0.17;;;10.30;99.90;;;;;;5041210;28;20040;-75
2023/11/06 02:19:11;;;;;;;0.10;0.10;;;10.30;99.90;;;;;;5029239;28;20046;-76
2023/11/06 02:21:38;;;;;;;0.10;0.10;;;10.30;99.90;;;;;;5028352;28;20056;-76
2023/11/06 02:24:06;;;;;;;1.02;0.25;;;10.20;99.90;;;;;;5040044;28;20044;-76
2023/11/06 02:26:32;;;;;;;1.25;1.15;;;10.20;99.90;;;;;;5044050;28;20496;-76
2023/11/06 02:28:58;;;;;;;5.28;1.13;;;10.20;1.00;;;;;;5043635;28;20505;-76
2023/11/06 02:31:24;;;;;;;3.22;0.73;;;10.20;1.00;;;;;;5046049;28;20492;-76
2023/11/06 02:33:51;;;;;;;0.30;0.30;;;10.10;1.00;;;;;;5040833;28;20033;-76
2023/11/06 02:36:17;;;;;;;0.25;0.25;;;10.10;1.00;;;;;;5038614;28;20390;-75
2023/11/06 02:38:43;;;;;;;0.22;0.22;;;10.00;1.00;;;;;;5041009;28;20040;-75
2023/11/06 02:41:11;;;;;;;22.02;1.15;;;10.00;1.00;;;;;;5043168;28;20037;-75
2023/11/06 02:43:37;;;;;;;3.22;0.90;;;9.90;1.00;;;;;;5039553;28;20059;-75
2023/11/06 02:46:03;;;;;;;0.10;0.10;;;9.90;12.30;;;;;;5040600;28;20035;-75
2023/11/06 02:48:31;;;;;;;0.20;0.20;;;9.90;46.30;;;;;;5040784;28;20029;-75
2023/11/06 02:50:57;;;;;;;0.50;0.20;;;9.80;98.00;;;;;;5040404;28;20041;-75
2023/11/06 02:53:25;;;;;;;0.10;0.10;;;9.70;99.90;;;;;;5025632;28;20033;-75
2023/11/06 02:55:53;;;;;;;0.17;0.17;;;9.70;99.90;;;;;;5044659;28;20048;-76
2023/11/06 02:58:21;;;;;;;3.40;0.73;;;9.60;99.90;;;;;;5035265;28;20053;-75
2023/11/06 03:00:47;;;;;;;0.10;0.10;;;9.60;99.90;;;;;;5030369;28;20053;-76
2023/11/06 03:03:13;;;;;;;0.10;0.10;;;9.60;99.90;;;;;;5039418;28;20037;-76
2023/11/06 03:05:39;;;;;;;0.30;0.30;;;9.60;99.90;;;;;;5038049;28;20483;-76
2023/11/06 03:08:06;;;;;;;0.85;0.85;;;9.50;99.90;;;;;;5040824;28;20505;-76
2023/11/06 03:10:32;;;;;;;0.00;0.00;;;9.50;99.90;;;;;;5042821;28;20039;-76
2023/11/06 03:12:58;;;;;;;0.10;0.10;;;9.40;99.90;;;;;;5041881;28;20033;-75
2023/11/06 03:15:24;;;;;;;1.35;0.55;;;9.40;99.90;;;;;;5040199;28;20049;-75
2023/11/06 03:17:50;;;;;;;0.10;0.10;;;9.40;99.90;;;;;;5039999;28;20095;-76
2023/11/06 03:20:16;;;;;;;0.20;0.10;;;9.40;99.90;;;;;;5033495;28;20045;-76
2023/11/06 03:22:43;;;;;;;0.35;0.35;;;9.50;99.90;;;;;;5041016;28;20389;-76
2023/11/06 03:25:09;;;;;;;0.63;0.38;;;9.50;99.90;;;;;;5032712;28;20401;-76
2023/11/06 03:27:35;;;;;;;0.10;0.10;;;9.40;1.00;;;;;;5031449;28;20033;-76
2023/11/06 03:30:04;;;;;;;0.10;0.10;;;9.40;1.00;;;;;;5045366;28;20033;-76
2023/11/06 03:32:30;;;;;;;0.63;0.63;;;9.40;1.00;;;;;;5046357;28;20033;-76
2023/11/06 03:34:57;;;;;;;15.45;0.82;;;9.40;1.00;;;;;;5045057;28;20548;-76
2023/11/06 03:37:23;;;;;;;1.17;0.52;;;9.40;1.00;;;;;;5042172;28;20053;-76
2023/11/06 03:39:51;;;;;;;0.55;0.55;;;9.30;1.00;;;;;;5030353;28;20045;-76
2023/11/06 03:42:17;;;;;;;0.65;0.65;;;9.30;1.00;;;;;;5046263;28;20052;-76
2023/11/06 03:44:43;;;;;;;0.10;0.10;;;9.30;1.00;;;;;;5043593;28;20039;-76
2023/11/06 03:47:09;;;;;;;0.10;0.10;;;9.20;1.00;;;;;;5026333;28;20417;-76
2023/11/06 03:49:36;;;;;;;0.57;0.57;;;9.20;1.00;;;;;;5051271;28;20449;-76
2023/11/06 03:52:05;;;;;;;1.55;0.68;;;9.20;1.00;;;;;;5029007;28;20447;-76
2023/11/06 03:54:31;;;;;;;0.63;0.63;;;9.20;1.00;;;;;;5043658;28;20044;-75
2023/11/06 03:56:58;;;;;;;0.30;0.20;;;9.10;1.00;;;;;;5042515;28;20048;-76
2023/11/06 03:59:25;;;;;;;1.08;0.85;;;9.10;1.00;;;;;;5044304;28;20402;-75
2023/11/06 04:01:51;;;;;;;0.10;0.10;;;9.10;1.00;;;;;;5046515;28;20037;-76
2023/11/06 04:04:17;;;;;;;0.10;0.10;;;9.10;1.00;;;;;;5025334;28;20032;-76
2023/11/06 04:06:43;;;;;;;0.10;0.10;;;9.10;1.00;;;;;;5043213;28;20041;-76
2023/11/06 04:09:10;;;;;;;0.10;0.10;;;9.10;1.00;;;;;;5043774;28;20041;-76
2023/11/06 04:11:37;;;;;;;0.20;0.20;;;9.10;1.00;;;;;;5048344;28;20497;-76
2023/11/06 04:14:04;;;;;;;0.20;0.20;;;9.10;1.00;;;;;;5048380;28;20037;-76
2023/11/06 04:16:31;;;;;;;1.30;0.38;;;9.10;1.00;;;;;;5041477;28;20041;-76
2023/11/06 04:18:57;;;;;;;0.20;0.20;;;9.10;99.90;;;;;;5044095;28;20043;-76
2023/11/06 04:21:23;;;;;;;0.00;0.00;;;9.10;99.90;;;;;;5042372;28;20034;-76
2023/11/06 04:23:49;;;;;;;0.00;0.00;;;9.10;99.90;;;;;;5047911;28;20040;-76
2023/11/06 04:26:16;;;;;;;0.65;0.63;;;9.20;99.90;;;;;;5031361;28;20405;-76
2023/11/06 04:28:42;;;;;;;2.90;1.95;;;9.20;99.90;;;;;;5042940;28;20022;-76
2023/11/06 04:31:08;;;;;;;0.10;0.10;;;9.30;99.90;;;;;;5046070;28;20481;-76
2023/11/06 04:33:34;;;;;;;5.13;1.23;;;9.30;99.90;;;;;;5053896;28;20025;-76
2023/11/06 04:36:01;;;;;;;0.10;0.10;;;9.30;93.90;;;;;;5046709;28;20041;-76
2023/11/06 04:38:27;;;;;;;0.10;0.10;;;9.40;19.30;;;;;;5046749;28;20038;-76
2023/11/06 04:40:53;;;;;;;0.10;0.10;;;9.40;4.60;;;;;;5050030;28;20045;-76
2023/11/06 04:43:19;;;;;;;0.10;0.10;;;9.40;1.00;;;;;;5051189;28;20398;-76
2023/11/06 04:45:45;;;;;;;0.10;0.10;;;9.40;1.00;;;;;;5049761;28;20040;-76
2023/11/06 04:48:11;;;;;;;0.10;0.10;;;9.40;1.00;;;;;;5024302;28;20032;-76
2023/11/06 04:50:38;;;;;;;0.47;0.47;;;9.50;1.00;;;;;;5041123;28;20049;-76
2023/11/06 04:53:04;;;;;;;0.30;0.30;;;9.50;1.00;;;;;;5046912;28;20047;-76
2023/11/06 04:55:31;;;;;;;0.10;0.10;;;9.50;1.00;;;;;;5047507;28;20033;-76
2023/11/06 04:57:57;;;;;;;0.30;0.30;;;9.50;1.00;;;;;;5041425;28;20405;-75
2023/11/06 05:00:23;;;;;;;0.10;0.10;;;9.50;6.80;;;;;;5042069;28;20386;-79
2023/11/06 05:02:49;;;;;;;0.10;0.10;;;9.50;15.80;;;;;;5044257;28;20029;-79
2023/11/06 05:05:16;;;;;;;0.20;0.20;;;9.40;21.80;;;;;;5042883;28;20025;-79
2023/11/06 05:07:42;;;;;;;0.10;0.10;;;9.50;26.70;;;;;;5048161;28;20394;-79
2023/11/06 05:10:08;;;;;;;0.20;0.13;;;9.50;15.70;;;;;;5045154;28;20038;-79
2023/11/06 05:12:37;;;;;;;0.10;0.10;;;9.50;17.10;;;;;;5045247;28;20041;-79
2023/11/06 05:15:05;;;;;;;0.10;0.10;;;9.50;3.70;;;;;;5044949;28;20049;-78
2023/11/06 05:17:31;;;;;;;3.10;0.88;;;9.50;3.50;;;;;;5047565;28;20417;-79
2023/11/06 05:19:57;;;;;;;0.20;0.20;;;9.50;10.30;;;;;;5036720;28;20037;-79
2023/11/06 05:22:23;;;;;;;0.75;0.35;;;9.50;8.00;;;;;;5043373;28;20036;-79
2023/11/06 05:24:49;;;;;;;0.20;0.20;;;9.60;5.60;;;;;;5042537;28;20044;-79
2023/11/06 05:27:16;;;;;;;0.10;0.10;;;9.50;11.90;;;;;;5047718;28;20028;-79
2023/11/06 05:29:43;;;;;;;0.17;0.15;;;9.50;16.70;;;;;;5045207;28;20037;-80
2023/11/06 05:32:10;;;;;;;0.10;0.10;;;9.50;1.00;;;;;;5040935;28;20029;-79
2023/11/06 05:34:36;;;;;;;0.77;0.52;;;9.60;1.00;;;;;;5045427;28;20033;-79
2023/11/06 05:37:05;;;;;;;2.90;1.45;;;9.60;1.00;;;;;;5023242;28;20383;-80
2023/11/06 05:39:32;;;;;;;0.88;0.52;;;9.60;1.00;;;;;;5041373;28;20395;-79
2023/11/06 05:41:58;;;;;;;2.65;0.85;;;9.60;1.00;;;;;;5041120;28;20409;-85
2023/11/06 05:44:24;;;;;;;0.40;0.40;;;9.60;1.00;;;;;;5029537;28;20051;-81
2023/11/06 05:46:50;;;;;;;0.22;0.22;;;9.60;1.00;;;;;;5041343;28;20390;-81
2023/11/06 05:49:16;;;;;;;0.10;0.10;;;9.60;1.00;;;;;;5045069;28;20044;-82
2023/11/06 05:51:45;;;;;;;0.20;0.20;;;9.60;1.00;;;;;;5030680;28;20501;-80
2023/11/06 05:54:12;;;;;;;0.00;0.00;;;9.60;1.00;;;;;;5022510;28;20090;-81
2023/11/06 05:56:38;;;;;;;0.10;0.10;;;9.60;1.00;;;;;;5040557;28;20044;-81
2023/11/06 05:59:04;;;;;;;0.32;0.32;;;9.60;1.00;;;;;;5029351;28;20881;-81
2023/11/06 06:01:30;;;;;;;0.10;0.10;;;9.60;1.00;;;;;;5042877;28;20033;-81
2023/11/06 06:03:56;;;;;;;0.43;0.43;;;9.60;1.00;;;;;;5021186;28;20025;-81
2023/11/06 06:06:23;;;;;;;0.25;0.25;;;9.60;1.00;;;;;;5040439;28;20029;-81
2023/11/06 06:08:49;;;;;;;1.30;0.73;;;9.60;1.00;;;;;;5043143;28;20060;-81
2023/11/06 06:11:15;;;;;;;1.17;0.75;;;9.60;1.00;;;;;;5047912;28;20056;-81
2023/11/06 06:13:42;;;;;;;0.75;0.43;;;9.50;1.00;;;;;;5024356;28;20044;-82
2023/11/06 06:16:08;;;;;;;0.10;0.10;;;9.50;1.00;;;;;;5042947;28;20109;-82
2023/11/06 06:18:34;;;;;;;0.10;0.10;;;9.50;7.60;;;;;;5040983;28;20056;-80
2023/11/06 06:21:00;;;;;;;0.10;0.10;;;9.50;5.10;;;;;;5030906;28;20041;-80
2023/11/06 06:23:26;;;;;;;1.83;0.25;;;9.50;1.40;;;;;;5042602;28;20040;-80
2023/11/06 06:25:53;;;;;;;0.03;0.03;;;9.50;1.10;;;;;;5043800;28;20036;-80
2023/11/06 06:28:19;;;;;;;0.10;0.10;;;9.60;1.00;;;;;;5041473;28;20056;-80
2023/11/06 06:30:45;;;;;;;0.10;0.10;;;9.60;1.00;;;;;;5043116;28;20036;-79
2023/11/06 06:33:11;;;;;;;0.10;0.10;;;9.60;1.00;;;;;;5045191;28;20060;-80
2023/11/06 06:35:37;;;;;;;0.10;0.10;;;9.60;1.00;;;;;;5028390;28;20040;-81
2023/11/06 06:38:03;;;;;;;0.52;0.50;;;9.60;1.00;;;;;;5039332;28;20041;-80
2023/11/06 06:40:30;;;;;;;1.20;0.43;;;9.50;1.00;;;;;;5037519;28;20025;-79
2023/11/06 06:42:56;;;;;;;0.65;0.30;;;9.50;1.00;;;;;;5029084;28;20040;-81
2023/11/06 06:45:22;;;;;;;0.52;0.52;;;9.50;1.00;;;;;;5041687;28;20039;-81
2023/11/06 06:47:48;;;;;;;2.17;1.15;;;9.50;1.00;;;;;;5025623;28;20406;-81
2023/11/06 06:50:15;;;;;;;0.57;0.57;;;9.50;1.00;;;;;;5045447;28;20029;-81
2023/11/06 06:52:41;;;;;;;0.00;0.00;;;9.60;1.00;;;;;;5030795;28;20395;-81
2023/11/06 06:55:08;;;;;;;0.20;0.17;;;9.60;1.00;;;;;;5045227;28;20501;-84
2023/11/06 06:57:34;;;;;;;0.25;0.25;;;9.60;1.00;;;;;;5040582;28;20025;-81
2023/11/06 07:00:02;;;;;;;0.20;0.20;;;9.70;1.00;;;;;;5042039;28;20478;-80
2023/11/06 07:02:28;;;;;;;0.10;0.10;;;9.70;1.00;;;;;;5041363;28;20037;-80
2023/11/06 07:04:54;;;;;;;0.43;0.38;;;9.70;99.90;;;;;;5037155;28;20474;-80
2023/11/06 07:07:20;;;;;;;0.10;0.10;;;9.80;99.90;;;;;;5040054;28;20041;-81
2023/11/06 07:09:47;;;;;;;0.10;0.10;;;9.80;99.90;;;;;;5024183;28;20037;-81
2023/11/06 07:12:14;;;;;;;0.30;0.30;;;9.90;99.90;;;;;;5041194;28;20058;-81
2023/11/06 07:14:40;;;;;;;0.10;0.10;;;9.90;99.90;;;;;;5044742;28;20029;-81
2023/11/06 07:17:06;;;;;;;1.77;1.27;;;10.00;99.90;;;;;;5038862;28;20060;-80
2023/11/06 07:19:33;;;;;;;0.63;0.30;;;10.10;99.90;;;;;;5048911;28;20040;-81
2023/11/06 07:22:01;;;;;;;1.38;0.20;;;10.20;99.90;;;;;;5055318;28;20018;-81
2023/11/06 07:24:27;;;;;;;0.45;0.35;;;10.30;99.90;;;;;;5063282;28;20037;-80
2023/11/06 07:26:56;;;;;;;0.20;0.20;;;10.40;99.90;;;;;;5044196;28;20033;-80
2023/11/06 07:29:26;;;;;;;4.88;1.17;;;10.40;99.90;;;;;;5046254;28;20380;-80
2023/11/06 07:31:52;;;;;;;0.10;0.10;;;10.50;99.90;;;;;;5044740;28;20033;-81
2023/11/06 07:34:19;;;;;;;0.70;0.70;;;10.60;99.90;;;;;;5045237;28;20028;-84
2023/11/06 07:36:45;;;;;;;1.25;0.77;;;10.70;99.90;;;;;;5044355;28;20037;-80
2023/11/06 07:39:12;;;;;;;0.30;0.30;;;10.70;99.90;;;;;;5043241;28;20044;-81
2023/11/06 07:41:38;;;;;;;0.10;0.10;;;10.70;99.90;;;;;;5041140;28;20036;-83
2023/11/06 07:44:05;;;;;;;0.20;0.20;;;10.60;99.90;;;;;;5042522;28;20503;-81
2023/11/06 07:46:31;;;;;;;0.00;0.00;;;10.60;99.90;;;;;;5038984;28;20032;-80
2023/11/06 07:48:57;;;;;;;0.10;0.10;;;10.60;99.90;;;;;;5039004;28;20025;-80
2023/11/06 07:51:24;;;;;;;0.05;0.05;;;10.70;99.90;;;;;;5026843;28;20371;-79
2023/11/06 07:53:51;;;;;;;0.20;0.20;;;10.70;99.90;;;;;;5042514;28;20394;-79
2023/11/06 07:56:19;;;;;;;0.25;0.25;;;10.80;99.90;;;;;;5042385;28;20397;-80
2023/11/06 07:58:47;;;;;;;0.25;0.20;;;10.80;99.90;;;;;;5023920;28;20050;-75
2023/11/06 08:01:14;;;;;;;0.20;0.20;;;10.90;99.90;;;;;;5043846;28;20037;-75
2023/11/06 08:03:41;;;;;;;0.00;0.00;;;10.80;99.90;;;;;;5041310;28;20425;-76
2023/11/06 08:06:07;;;;;;;0.35;0.35;;;10.80;99.90;;;;;;5044093;28;20045;-76
2023/11/06 08:08:33;;;;;;;1.45;0.32;;;10.80;99.90;;;;;;5048419;28;20049;-75
2023/11/06 08:11:00;;;;;;;0.08;0.08;;;10.80;99.90;;;;;;5042456;28;20040;-75
2023/11/06 08:13:26;;;;;;;0.32;0.28;;;10.80;99.90;;;;;;5044537;28;20028;-77
2023/11/06 08:15:52;;;;;;;0.80;0.25;;;10.70;99.90;;;;;;5043965;28;20032;-76
2023/11/06 08:18:18;;;;;;;0.10;0.10;;;10.70;99.90;;;;;;5044556;28;20041;-75
2023/11/06 08:20:44;;;;;;;0.35;0.35;;;10.70;99.90;;;;;;5050180;28;20389;-76
2023/11/06 08:23:10;;;;;;;0.68;0.52;;;10.70;99.90;;;;;;5034883;28;20048;-77
2023/11/06 08:25:37;;;;;;;0.13;0.13;;;10.70;99.90;;;;;;5043905;28;20039;-77
2023/11/06 08:28:03;;;;;;;3.45;0.40;;;10.70;99.90;;;;;;5038170;28;20407;-76
2023/11/06 08:30:30;;;;;;;0.20;0.20;;;10.80;99.90;;;;;;5044551;28;20421;-76
2023/11/06 08:32:56;;;;;;;0.05;0.05;;;11.00;99.90;;;;;;5041773;28;20041;-76
2023/11/06 08:35:22;;;;;;;0.15;0.15;;;11.20;99.90;;;;;;5043332;28;20032;-78
2023/11/06 08:37:48;;;;;;;0.22;0.22;;;11.40;99.90;;;;;;5041926;28;20045;-76
2023/11/06 08:40:18;;;;;;;0.20;0.20;;;11.50;99.90;;;;;;5046047;28;20492;-76
2023/11/06 08:42:47;;;;;;;0.43;0.43;;;11.50;99.90;;;;;;5041424;28;20033;-77
2023/11/06 08:45:13;;;;;;;1.00;0.75;;;11.50;99.90;;;;;;5042865;28;20032;-76
2023/11/06 08:47:39;;;;;;;0.57;0.50;;;11.50;99.90;;;;;;5042841;28;20512;-76
2023/11/06 08:50:07;;;;;;;1.45;0.75;;;11.50;99.90;;;;;;5047277;28;20026;-77
2023/11/06 08:52:33;;;;;;;0.77;0.47;;;11.50;99.90;;;;;;5043725;28;20032;-83
2023/11/06 08:54:59;;;;;;;0.40;0.35;;;11.50;99.90;;;;;;5043674;28;20057;-78
2023/11/06 08:57:26;;;;;;;0.43;0.43;;;11.50;99.90;;;;;;5045346;28;20034;-78
2023/11/06 08:59:52;;;;;;;0.63;0.38;;;11.50;96.70;;;;;;5047818;28;20032;-79
2023/11/06 09:02:20;;;;;;;0.10;0.10;;;11.60;96.90;;;;;;5047771;28;20025;-77
2023/11/06 09:04:47;;;;;;;0.40;0.40;;;11.60;94.20;;;;;;5042565;28;20036;-81
2023/11/06 09:07:14;;;;;;;0.30;0.30;;;11.70;97.60;;;;;;5041254;28;20062;-81
2023/11/06 09:09:41;;;;;;;0.47;0.40;;;11.80;97.50;;;;;;5026382;28;20045;-79
2023/11/06 09:12:08;;;;;;;12.52;1.95;;;12.00;65.70;;;;;;5031529;28;20041;-79
2023/11/06 09:14:34;;;;;;;0.22;0.22;;;11.90;50.20;;;;;;5050544;28;20037;-79
2023/11/06 09:17:02;;;;;;;0.80;0.80;;;12.00;42.00;;;;;;5042362;28;20040;-78
2023/11/06 09:19:28;;;;;;;0.10;0.10;;;12.10;38.70;;;;;;5038343;28;20033;-78
2023/11/06 09:21:56;;;;;;;0.10;0.10;;;12.10;30.20;;;;;;5042893;28;20039;-77
2023/11/06 09:24:24;;;;;;;0.08;0.08;;;12.10;39.50;;;;;;5046052;28;20037;-79
2023/11/06 09:26:50;;;;;;;0.43;0.40;;;12.10;38.30;;;;;;5043120;28;20059;-78
2023/11/06 09:29:16;;;;;;;0.10;0.10;;;12.20;41.20;;;;;;5039535;28;20040;-78
2023/11/06 09:31:42;;;;;;;0.65;0.47;;;12.40;25.30;;;;;;5038121;28;20041;-79
2023/11/06 09:34:10;;;;;;;0.30;0.30;;;12.40;17.80;;;;;;5046410;28;20055;-77
2023/11/06 09:36:36;;;;;;;0.10;0.10;;;12.60;1.00;;;;;;5040045;28;20037;-78
2023/11/06 09:39:04;;;;;;;0.10;0.10;;;12.60;1.00;;;;;;5039510;28;20033;-75
2023/11/06 09:41:32;;;;;;;0.10;0.10;;;12.70;1.00;;;;;;5043146;28;20037;-77
2023/11/06 09:43:59;;;;;;;0.10;0.10;;;12.70;1.00;;;;;;5044109;28;20037;-76
2023/11/06 09:46:26;;;;;;;0.10;0.10;;;12.60;1.00;;;;;;5040016;28;20478;-76
2023/11/06 09:48:54;;;;;;;0.20;0.20;;;12.60;1.00;;;;;;5036947;28;20465;-75
2023/11/06 09:51:29;;;;;;;0.55;0.55;;;12.60;1.00;;;;;;5041995;28;20029;-76
2023/11/06 09:53:58;;;;;;;2.20;1.00;;;12.60;1.00;;;;;;5044308;28;20033;-75
2023/11/06 09:56:25;;;;;;;0.30;0.30;;;12.40;1.00;;;;;;5058202;28;20037;-75
2023/11/06 09:58:51;;;;;;;0.10;0.10;;;12.40;1.00;;;;;;5058350;28;20025;-75
2023/11/06 10:01:17;;;;;;;0.10;0.10;;;12.60;1.00;;;;;;5067434;28;20027;-75
2023/11/06 10:03:43;;;;;;;4.05;0.75;;;12.70;1.00;;;;;;5043457;28;20212;-75
2023/11/06 10:06:10;;;;;;;2.80;0.30;;;12.80;1.00;;;;;;5045166;28;20486;-74
2023/11/06 10:08:37;;;;;;;0.10;0.10;;;12.90;1.00;;;;;;5042231;28;20053;-76
2023/11/06 10:11:05;;;;;;;0.10;0.10;;;12.90;1.00;;;;;;5021587;28;20029;-74
2023/11/06 10:13:31;;;;;;;0.10;0.10;;;12.80;1.00;;;;;;5039103;28;20378;-75
2023/11/06 10:16:17;;;;;;;0.85;0.75;;;12.80;1.00;;;;;;5041008;28;20029;-75
2023/11/06 10:18:46;;;;;;;0.00;0.00;;;12.80;1.00;;;;;;5043424;28;20073;-74
2023/11/06 10:21:27;;;;;;;0.10;0.10;;;12.70;1.00;;;;;;5039762;28;20421;-74
2023/11/06 10:23:59;;;;;;;1.35;0.22;;;12.60;1.00;;;;;;5044191;28;20104;-74
2023/11/06 10:26:31;;;;;;;0.10;0.10;;;12.60;1.00;;;;;;5043039;28;20040;-74
2023/11/06 10:29:19;;;;;;;0.93;0.47;;;12.60;1.00;;;;;;5040317;28;20383;-75
2023/11/06 10:31:48;;;;;;;0.00;0.00;;;12.40;1.00;;;;;;5042717;28;20032;-74
2023/11/06 10:34:37;;;;;;;3.83;0.70;;;12.50;1.00;;;;;;5044045;28;20037;-74
2023/11/06 10:37:10;;;;;;;0.57;0.35;;;12.40;1.00;;;;;;5043082;28;20249;-75
2023/11/06 10:39:40;;;;;;;1.00;0.68;;;12.30;1.00;;;;;;5032410;28;20081;-78
2023/11/06 10:42:11;;;;;;;0.10;0.10;;;12.40;1.00;;;;;;5043408;28;20028;-77
2023/11/06 10:44:38;;;;;;;0.63;0.30;;;12.40;1.00;;;;;;5039076;28;20039;-74
2023/11/06 10:47:07;;;;;;;0.45;0.45;;;12.40;1.00;;;;;;5041481;28;20032;-77
2023/11/06 10:49:35;;;;;;;0.38;0.20;;;12.50;1.00;;;;;;5043478;28;20081;-73
2023/11/06 10:52:07;;;;;;;0.10;0.10;;;12.60;1.00;;;;;;5038593;28;20041;-74
2023/11/06 10:54:35;;;;;;;0.40;0.40;;;12.60;1.00;;;;;;5040016;28;20498;-76
2023/11/06 10:57:02;;;;;;;0.10;0.10;;;12.60;1.00;;;;;;5028837;28;20045;-77
2023/11/06 10:59:31;;;;;;;0.22;0.22;;;12.60;1.00;;;;;;5040457;28;20363;-77
2023/11/06 11:01:58;;;;;;;2.28;1.10;;;12.60;1.00;;;;;;5044560;28;20339;-75
2023/11/06 11:04:26;;;;;;;0.85;0.45;;;12.60;1.00;;;;;;5040893;28;20483;-76
2023/11/06 11:06:52;;;;;;;0.10;0.10;;;12.50;1.00;;;;;;5040633;28;20044;-75
2023/11/06 11:09:19;;;;;;;0.70;0.30;;;12.50;1.00;;;;;;5041244;28;20051;-74
2023/11/06 11:11:45;;;;;;;0.10;0.10;;;12.50;1.00;;;;;;5043291;28;20041;-74
2023/11/06 11:14:15;;;;;;;0.05;0.05;;;12.50;15.40;;;;;;5043093;28;20029;-74
2023/11/06 11:16:50;;;;;;;0.10;0.10;;;12.60;1.00;;;;;;5038687;28;20053;-74
2023/11/06 11:19:23;;;;;;;0.10;0.10;;;12.60;1.00;;;;;;5042051;28;20026;-76
2023/11/06 11:22:02;;;;;;;0.10;0.10;;;12.70;1.00;;;;;;5040284;28;20045;-74
2023/11/06 11:24:50;;;;;;;0.10;0.10;;;12.60;1.00;;;;;;5040485;28;20037;-77
2023/11/06 11:27:37;;;;;;;0.10;0.10;;;12.60;1.00;;;;;;5039253;28;20052;-76
2023/11/06 11:30:03;;;;;;;0.10;0.10;;;12.60;1.00;;;;;;5040849;28;20033;-77
2023/11/06 11:32:29;;;;;;;0.10;0.10;;;12.60;1.00;;;;;;5045385;28;20365;-77
2023/11/06 11:35:19;;;;;;;0.30;0.10;;;12.70;1.00;;;;;;5043526;28;20041;-77
2023/11/06 11:37:57;;;;;;;0.52;0.35;;;12.70;1.00;;;;;;5043511;28;20033;-77
2023/11/06 11:40:44;;;;;;;0.10;0.10;;;12.80;1.00;;;;;;5040500;28;20045;-76
2023/11/06 11:43:36;;;;;;;0.10;0.10;;;12.90;1.00;;;;;;5028924;28;20052;-77
2023/11/06 11:46:03;;;;;;;1.75;1.00;;;12.90;1.00;;;;;;5036586;28;20399;-77
2023/11/06 11:48:51;;;;;;;0.47;0.47;;;13.00;1.00;;;;;;5043001;28;20493;-76
2023/11/06 11:51:51;;;;;;;0.30;0.30;;;13.10;1.00;;;;;;5048389;28;20052;-76
2023/11/06 11:54:28;;;;;;;0.38;0.30;;;13.10;18.60;;;;;;5044095;28;20025;-76
2023/11/06 11:56:56;;;;;;;0.10;0.10;;;13.00;8.00;;;;;;5042429;28;20036;-77
2023/11/06 11:59:25;;;;;;;0.45;0.45;;;13.00;37.90;;;;;;5042055;28;20029;-76
2023/11/06 12:01:52;;;;;;;0.20;0.20;;;13.10;16.80;;;;;;5041605;28;20684;-76
2023/11/06 12:04:22;;;;;;;0.20;0.20;;;13.30;5.40;;;;;;5050026;28;20036;-76
2023/11/06 12:06:58;;;;;;;0.00;0.00;;;13.40;1.00;;;;;;5046348;28;20045;-76
2023/11/06 12:09:25;;;;;;;0.00;0.00;;;13.50;1.00;;;;;;5042566;28;20057;-76
2023/11/06 12:11:52;;;;;;;0.10;0.10;;;13.60;1.00;;;;;;5040893;28;20494;-76
2023/11/06 12:14:18;;;;;;;0.47;0.47;;;13.70;1.00;;;;;;5045681;28;20508;-76
2023/11/06 12:16:52;;;;;;;0.10;0.10;;;13.60;1.00;;;;;;5046780;28;20037;-76
2023/11/06 12:19:18;;;;;;;0.28;0.17;;;13.40;1.00;;;;;;5040806;28;20033;-76
2023/11/06 12:22:00;;;;;;;0.10;0.10;;;13.40;1.00;;;;;;5047812;28;20064;-76
2023/11/06 12:24:26;;;;;;;0.10;0.10;;;13.30;1.00;;;;;;5045520;28;20504;-76
2023/11/06 12:26:53;;;;;;;0.70;0.30;;;13.30;1.00;;;;;;5046363;28;20025;-77
2023/11/06 12:29:26;;;;;;;1.75;1.65;;;13.10;1.40;;;;;;5050432;28;20029;-77
2023/11/06 12:31:54;;;;;;;4.93;2.08;;;13.00;98.50;;;;;;5045164;28;20025;-76
2023/11/06 12:34:21;;;;;;;0.63;0.32;;;12.70;99.90;;;;;;5051998;28;20025;-75
2023/11/06 12:36:47;;;;;;;0.20;0.20;;;12.30;99.90;;;;;;5055706;28;20044;-75
2023/11/06 12:39:27;;;;;;;0.50;0.40;;;11.80;99.90;;;;;;5053997;28;20041;-76
2023/11/06 12:41:57;;;;;;;0.68;0.68;;;11.60;1.00;;;;;;5043806;28;20033;-76
2023/11/06 12:44:38;;;;;;;0.20;0.20;;;11.70;1.00;;;;;;5046355;28;21137;-76
2023/11/06 12:47:12;;;;;;;0.10;0.10;;;11.90;1.00;;;;;;5045582;28;20036;-79
2023/11/06 12:49:50;;;;;;;1.10;0.45;;;12.10;13.50;;;;;;5042757;28;20355;-79
2023/11/06 12:52:21;;;;;;;0.10;0.10;;;12.10;1.00;;;;;;5046215;28;20497;-76
2023/11/06 12:54:48;;;;;;;0.10;0.10;;;12.20;1.00;;;;;;5046734;28;20046;-77
2023/11/06 12:57:18;;;;;;;0.25;0.25;;;12.20;1.00;;;;;;5046480;28;20052;-79
2023/11/06 12:59:46;;;;;;;1.90;1.40;;;12.30;1.00;;;;;;5037691;28;20048;-79